Richard B Russell Airport
KRMG : now visible

Airfield :











YOU CAN JOIN US ON...

 
LOGIN :

Register | Disclaimer

   EN    FR    IT 

 









Legend :    VFR   Marginal VFR   IFR   Intensive IFR   Very Intensive IFR
Visi :
Ceiling :
>= 8 km
>= 3000ft
5 to 8 km
1000 to 3000 ft
1500m to 5 km
500 to 1000 ft
800 to 1500m
200 to 500 ft
< 800m
< 200 ft
Symbols :   Thunderstorms  Fog  Heavy snow  Heavy precipitations  Wind > 20 kt






- Airport Elevation : 644 ft


KRMG - Richard B Russell

CURRENT METAR :
  • 270153Z AUTO 00000KT 10SM OVC060 07/03 A3002 RMK AO2 SLP165 T00670033

EXPIRED METARs :
  • 270053Z AUTO 00000KT 10SM OVC060 07/02 A3002 RMK AO2 SLP168 T00720022
  • 262353Z AUTO 00000KT 10SM OVC055 08/02 A3002 RMK AO2 SLP166 T00780022 10083 20067 58004

TAF N/A



MET'MAP, your aeronautical weather chart ! - Copyright ORBIFLY December 2007 - Disclaimer

ORBIFLY MET'MAP TEAM :

Programming & Development : Alexandra Zaïnal
Concept & original design : Baudouin d'Aumeries
Assistance for programming : Marc-Olivier Méhu
Technical & hardware support : Manuel Goepfert

Contact : metmap@orbifly.com




SOURCES & CREDITS :

   NOAA       Earth
Advisory